Магнитогорск, Россия

22 12, 2014 19:10 YEKT (GMT +0500)
Magnitogorsk | Change Station
CLOSE
Current Station
Аэропорт
Location: MAGNITOGORSK,
Высота над уровнем моря: 1430 ft
Ближайшие Погодные Станции

В.н.у.м. 1430 ft 53.39 °N, 58.76 °E | Updated 10 minutes ago

Light Freezing Drizzle
легкая изморось
30 °F
Ощущается Как 21 °F
С
11
Ветер переменчевый Ветер от Южный

Сегодня
Высокий -- | Низкий -- °F
--% Вероятн. осадков
Вчера
Высокий -- | Низкий -- °F
Precip. -- дюймов
9:17 AM 4:47 PM
Новолуние, 0% visible
Давление 29.77 дюймов
Видимость 0.2 милиь
Облачность
Температура с учетом ветра 21 °F
Точка Росы 28 °F
Влажность воздуха 93%
Дождь 0.00 дюймов
Глубина снега Нет в наличии.
УФ Нет в наличии.
Пыльца Нет в наличии.
Качество воздуха Нет в наличии.
Flu Activity Нет в наличии.
METAR USCM 221400Z 19005MPS 0250 R19/0700N FZDZ FZFG VV002 M01/M02 Q1008 TEMPO 0700 FZDZ FZFG VV002 19350150 RMK QFE719

More Conditions Fewer Conditions

Давление 29.77 дюймов
Видимость 0.2 милиь
Облачность
Температура с учетом ветра 21 °F
Точка Росы 28 °F
Влажность воздуха 93%
Дождь 0.00 дюймов
Глубина снега Нет в наличии.
УФ Нет в наличии.
Пыльца Нет в наличии.
Качество воздуха Нет в наличии.
Flu Activity Нет в наличии.
METAR USCM 221400Z 19005MPS 0250 R19/0700N FZDZ FZFG VV002 M01/M02 Q1008 TEMPO 0700 FZDZ FZFG VV002 19350150 RMK QFE719

More Conditions Fewer Conditions

10-Day Weather Forecast

Almanac

Астрономические явления

Dec. 22, 2014 Восход Закат
Настоящее время
Гражданские сумерки
Навигационные сумерки
Астрономические сумерки
Луна
Длительность светового времени
Продолжительность Дня
Tomorrow will be .
, % of the Moon is Illuminated

Сегодняшние Экстремальные Показания

Country Highs Country Lows

Community

WunderPhotos

Upload Photos

1,779,602 фотографии загружены!

WunderBlogs® & News

Nearby

Качество воздуха

  Качество воздуха Индекс AQ Загрязнитель
Not available.

Глубина Снега

Station Depth Высота над уровнем моря

Сейсмическая активность

Город Distance Mag. Time & Date
Minimum magnitude displayed is 2.5.

Температура Прибрежных Вод

Место Температура

Ближайшие Погодные Станции